sensor_id;sensor_type;location;lat;lon;timestamp;P1;durP1;ratioP1;P2;durP2;ratioP2
8825;SDS011;4449;50.872;4.714;2022-12-10T00:02:11;23.38;;;10.80;;
8825;SDS011;4449;50.872;4.714;2022-12-10T00:04:39;25.27;;;11.48;;
8825;SDS011;4449;50.872;4.714;2022-12-10T00:07:07;23.10;;;10.90;;
8825;SDS011;4449;50.872;4.714;2022-12-10T00:09:36;24.90;;;10.80;;
8825;SDS011;4449;50.872;4.714;2022-12-10T00:12:04;22.90;;;10.65;;
8825;SDS011;4449;50.872;4.714;2022-12-10T00:14:32;26.58;;;11.32;;
8825;SDS011;4449;50.872;4.714;2022-12-10T00:17:00;23.75;;;11.52;;
8825;SDS011;4449;50.872;4.714;2022-12-10T00:19:27;26.25;;;11.45;;
8825;SDS011;4449;50.872;4.714;2022-12-10T00:21:55;24.35;;;10.65;;
8825;SDS011;4449;50.872;4.714;2022-12-10T00:24:23;26.13;;;12.18;;
8825;SDS011;4449;50.872;4.714;2022-12-10T00:26:52;30.20;;;10.85;;
8825;SDS011;4449;50.872;4.714;2022-12-10T00:29:20;23.95;;;10.98;;
8825;SDS011;4449;50.872;4.714;2022-12-10T00:31:48;28.63;;;12.40;;
8825;SDS011;4449;50.872;4.714;2022-12-10T00:34:15;29.20;;;12.93;;
8825;SDS011;4449;50.872;4.714;2022-12-10T00:36:43;31.40;;;12.45;;
8825;SDS011;4449;50.872;4.714;2022-12-10T00:39:12;27.42;;;11.77;;
8825;SDS011;4449;50.872;4.714;2022-12-10T00:41:40;33.97;;;12.35;;
8825;SDS011;4449;50.872;4.714;2022-12-10T00:44:10;27.55;;;12.18;;
8825;SDS011;4449;50.872;4.714;2022-12-10T00:46:37;30.00;;;12.85;;
8825;SDS011;4449;50.872;4.714;2022-12-10T00:49:05;32.03;;;11.90;;
8825;SDS011;4449;50.872;4.714;2022-12-10T00:51:33;28.38;;;10.68;;
8825;SDS011;4449;50.872;4.714;2022-12-10T00:54:01;23.10;;;11.77;;
8825;SDS011;4449;50.872;4.714;2022-12-10T00:56:31;24.83;;;11.43;;
8825;SDS011;4449;50.872;4.714;2022-12-10T00:58:59;27.33;;;12.63;;
8825;SDS011;4449;50.872;4.714;2022-12-10T01:01:29;23.27;;;11.98;;
8825;SDS011;4449;50.872;4.714;2022-12-10T01:03:58;26.42;;;11.40;;
8825;SDS011;4449;50.872;4.714;2022-12-10T01:06:27;30.23;;;12.73;;
8825;SDS011;4449;50.872;4.714;2022-12-10T01:08:56;18.80;;;9.15;;
8825;SDS011;4449;50.872;4.714;2022-12-10T01:11:25;24.48;;;11.30;;
8825;SDS011;4449;50.872;4.714;2022-12-10T01:13:52;24.58;;;10.23;;
8825;SDS011;4449;50.872;4.714;2022-12-10T01:16:20;23.80;;;10.93;;
8825;SDS011;4449;50.872;4.714;2022-12-10T01:18:50;28.88;;;11.55;;
8825;SDS011;4449;50.872;4.714;2022-12-10T01:21:19;21.98;;;10.60;;
8825;SDS011;4449;50.872;4.714;2022-12-10T01:23:48;22.45;;;10.00;;
8825;SDS011;4449;50.872;4.714;2022-12-10T01:26:16;19.70;;;10.10;;
8825;SDS011;4449;50.872;4.714;2022-12-10T01:28:45;22.38;;;10.43;;
8825;SDS011;4449;50.872;4.714;2022-12-10T01:31:13;21.27;;;10.10;;
8825;SDS011;4449;50.872;4.714;2022-12-10T01:33:41;30.45;;;10.63;;
8825;SDS011;4449;50.872;4.714;2022-12-10T01:36:11;21.73;;;9.57;;
8825;SDS011;4449;50.872;4.714;2022-12-10T01:38:40;24.67;;;9.63;;
8825;SDS011;4449;50.872;4.714;2022-12-10T01:41:10;22.27;;;9.48;;
8825;SDS011;4449;50.872;4.714;2022-12-10T01:43:53;25.58;;;10.35;;
8825;SDS011;4449;50.872;4.714;2022-12-10T01:46:22;18.58;;;9.23;;
8825;SDS011;4449;50.872;4.714;2022-12-10T01:48:50;23.75;;;9.95;;
8825;SDS011;4449;50.872;4.714;2022-12-10T01:51:19;23.50;;;10.23;;
8825;SDS011;4449;50.872;4.714;2022-12-10T01:53:47;23.00;;;9.68;;
8825;SDS011;4449;50.872;4.714;2022-12-10T01:56:16;26.58;;;10.50;;
8825;SDS011;4449;50.872;4.714;2022-12-10T01:58:44;24.88;;;11.23;;
8825;SDS011;4449;50.872;4.714;2022-12-10T02:01:14;26.33;;;10.70;;
8825;SDS011;4449;50.872;4.714;2022-12-10T02:03:48;19.38;;;9.10;;
8825;SDS011;4449;50.872;4.714;2022-12-10T02:06:28;24.48;;;10.50;;
8825;SDS011;4449;50.872;4.714;2022-12-10T02:08:59;25.17;;;10.82;;
8825;SDS011;4449;50.872;4.714;2022-12-10T02:11:29;22.50;;;9.73;;
8825;SDS011;4449;50.872;4.714;2022-12-10T02:14:02;19.88;;;9.95;;
8825;SDS011;4449;50.872;4.714;2022-12-10T02:16:31;24.15;;;10.32;;
8825;SDS011;4449;50.872;4.714;2022-12-10T02:19:06;24.70;;;10.05;;
8825;SDS011;4449;50.872;4.714;2022-12-10T02:21:38;27.15;;;10.05;;
8825;SDS011;4449;50.872;4.714;2022-12-10T02:24:07;27.90;;;11.65;;
8825;SDS011;4449;50.872;4.714;2022-12-10T02:26:39;23.20;;;10.48;;
8825;SDS011;4449;50.872;4.714;2022-12-10T02:29:12;19.80;;;9.93;;
8825;SDS011;4449;50.872;4.714;2022-12-10T02:31:42;21.85;;;9.27;;
8825;SDS011;4449;50.872;4.714;2022-12-10T02:34:11;21.42;;;10.68;;
8825;SDS011;4449;50.872;4.714;2022-12-10T02:36:41;20.98;;;10.05;;
8825;SDS011;4449;50.872;4.714;2022-12-10T02:39:10;24.02;;;9.70;;
8825;SDS011;4449;50.872;4.714;2022-12-10T02:41:40;27.45;;;10.70;;
8825;SDS011;4449;50.872;4.714;2022-12-10T02:44:10;24.98;;;10.38;;
8825;SDS011;4449;50.872;4.714;2022-12-10T02:46:40;23.25;;;10.32;;
8825;SDS011;4449;50.872;4.714;2022-12-10T02:49:10;25.02;;;10.52;;
8825;SDS011;4449;50.872;4.714;2022-12-10T02:51:39;25.65;;;10.75;;
8825;SDS011;4449;50.872;4.714;2022-12-10T02:56:56;20.83;;;10.52;;
8825;SDS011;4449;50.872;4.714;2022-12-10T02:59:26;20.85;;;10.35;;
8825;SDS011;4449;50.872;4.714;2022-12-10T03:01:59;25.98;;;10.55;;
8825;SDS011;4449;50.872;4.714;2022-12-10T03:04:31;24.25;;;9.60;;
8825;SDS011;4449;50.872;4.714;2022-12-10T03:07:01;26.60;;;10.82;;
8825;SDS011;4449;50.872;4.714;2022-12-10T03:09:30;22.50;;;10.23;;
8825;SDS011;4449;50.872;4.714;2022-12-10T03:12:02;18.95;;;9.15;;
8825;SDS011;4449;50.872;4.714;2022-12-10T03:14:33;22.33;;;9.77;;
8825;SDS011;4449;50.872;4.714;2022-12-10T03:17:04;26.17;;;9.70;;
8825;SDS011;4449;50.872;4.714;2022-12-10T03:19:33;19.33;;;9.55;;
8825;SDS011;4449;50.872;4.714;2022-12-10T03:22:03;24.13;;;9.02;;
8825;SDS011;4449;50.872;4.714;2022-12-10T03:24:32;19.50;;;9.73;;
8825;SDS011;4449;50.872;4.714;2022-12-10T03:27:00;36.85;;;12.52;;
8825;SDS011;4449;50.872;4.714;2022-12-10T03:29:30;26.08;;;10.52;;
8825;SDS011;4449;50.872;4.714;2022-12-10T03:32:00;28.40;;;11.80;;
8825;SDS011;4449;50.872;4.714;2022-12-10T03:34:30;25.67;;;12.07;;
8825;SDS011;4449;50.872;4.714;2022-12-10T03:36:59;31.05;;;11.90;;
8825;SDS011;4449;50.872;4.714;2022-12-10T03:39:27;28.85;;;10.52;;
8825;SDS011;4449;50.872;4.714;2022-12-10T03:41:55;28.35;;;12.15;;
8825;SDS011;4449;50.872;4.714;2022-12-10T03:44:27;27.40;;;11.43;;
8825;SDS011;4449;50.872;4.714;2022-12-10T03:46:54;26.30;;;11.32;;
8825;SDS011;4449;50.872;4.714;2022-12-10T03:49:22;27.02;;;11.25;;
8825;SDS011;4449;50.872;4.714;2022-12-10T03:51:52;28.58;;;11.32;;
8825;SDS011;4449;50.872;4.714;2022-12-10T03:54:19;34.63;;;13.18;;
8825;SDS011;4449;50.872;4.714;2022-12-10T03:56:47;31.33;;;12.27;;
8825;SDS011;4449;50.872;4.714;2022-12-10T03:59:15;39.95;;;13.63;;
8825;SDS011;4449;50.872;4.714;2022-12-10T04:01:43;29.65;;;11.60;;
8825;SDS011;4449;50.872;4.714;2022-12-10T04:04:11;36.33;;;13.82;;
8825;SDS011;4449;50.872;4.714;2022-12-10T04:06:39;31.08;;;12.15;;
8825;SDS011;4449;50.872;4.714;2022-12-10T04:09:09;32.22;;;11.55;;
8825;SDS011;4449;50.872;4.714;2022-12-10T04:11:38;22.13;;;10.10;;
8825;SDS011;4449;50.872;4.714;2022-12-10T04:14:07;28.80;;;10.80;;
8825;SDS011;4449;50.872;4.714;2022-12-10T04:16:52;26.80;;;10.75;;
8825;SDS011;4449;50.872;4.714;2022-12-10T04:19:20;25.40;;;10.88;;
8825;SDS011;4449;50.872;4.714;2022-12-10T04:21:48;24.15;;;10.95;;
8825;SDS011;4449;50.872;4.714;2022-12-10T04:24:35;35.28;;;12.68;;
8825;SDS011;4449;50.872;4.714;2022-12-10T04:27:21;23.27;;;11.05;;
8825;SDS011;4449;50.872;4.714;2022-12-10T04:29:50;27.85;;;11.65;;
8825;SDS011;4449;50.872;4.714;2022-12-10T04:32:18;24.05;;;12.25;;
8825;SDS011;4449;50.872;4.714;2022-12-10T04:34:46;29.67;;;11.60;;
8825;SDS011;4449;50.872;4.714;2022-12-10T04:37:13;25.50;;;11.95;;
8825;SDS011;4449;50.872;4.714;2022-12-10T04:39:43;33.90;;;13.70;;
8825;SDS011;4449;50.872;4.714;2022-12-10T04:42:11;31.17;;;13.13;;
8825;SDS011;4449;50.872;4.714;2022-12-10T04:44:39;35.72;;;13.20;;
8825;SDS011;4449;50.872;4.714;2022-12-10T04:47:07;31.25;;;13.07;;
8825;SDS011;4449;50.872;4.714;2022-12-10T04:49:35;34.47;;;14.30;;
8825;SDS011;4449;50.872;4.714;2022-12-10T04:52:04;27.25;;;12.60;;
8825;SDS011;4449;50.872;4.714;2022-12-10T04:54:32;28.75;;;12.55;;
8825;SDS011;4449;50.872;4.714;2022-12-10T04:57:01;32.83;;;12.48;;
8825;SDS011;4449;50.872;4.714;2022-12-10T04:59:29;33.40;;;13.90;;
8825;SDS011;4449;50.872;4.714;2022-12-10T05:01:56;37.33;;;13.48;;
8825;SDS011;4449;50.872;4.714;2022-12-10T05:04:24;34.22;;;13.13;;
8825;SDS011;4449;50.872;4.714;2022-12-10T05:06:53;42.00;;;15.18;;
8825;SDS011;4449;50.872;4.714;2022-12-10T05:09:20;43.80;;;15.90;;
8825;SDS011;4449;50.872;4.714;2022-12-10T05:11:49;32.08;;;12.98;;
8825;SDS011;4449;50.872;4.714;2022-12-10T05:14:18;30.48;;;13.73;;
8825;SDS011;4449;50.872;4.714;2022-12-10T05:16:45;32.55;;;13.45;;
8825;SDS011;4449;50.872;4.714;2022-12-10T05:19:16;32.60;;;13.40;;
8825;SDS011;4449;50.872;4.714;2022-12-10T05:21:45;35.10;;;14.70;;
8825;SDS011;4449;50.872;4.714;2022-12-10T05:24:42;34.25;;;12.75;;
8825;SDS011;4449;50.872;4.714;2022-12-10T05:27:09;35.22;;;12.90;;
8825;SDS011;4449;50.872;4.714;2022-12-10T05:29:39;41.03;;;13.50;;
8825;SDS011;4449;50.872;4.714;2022-12-10T05:32:06;32.17;;;14.48;;
8825;SDS011;4449;50.872;4.714;2022-12-10T05:34:34;33.88;;;14.43;;
8825;SDS011;4449;50.872;4.714;2022-12-10T05:37:02;32.33;;;12.77;;
8825;SDS011;4449;50.872;4.714;2022-12-10T05:39:30;33.75;;;13.00;;
8825;SDS011;4449;50.872;4.714;2022-12-10T05:41:57;33.55;;;13.75;;
8825;SDS011;4449;50.872;4.714;2022-12-10T05:44:25;33.70;;;12.70;;
8825;SDS011;4449;50.872;4.714;2022-12-10T05:46:54;35.35;;;12.88;;
8825;SDS011;4449;50.872;4.714;2022-12-10T05:49:22;31.58;;;12.60;;
8825;SDS011;4449;50.872;4.714;2022-12-10T05:51:49;32.60;;;12.27;;
8825;SDS011;4449;50.872;4.714;2022-12-10T05:54:17;26.00;;;11.82;;
8825;SDS011;4449;50.872;4.714;2022-12-10T05:56:45;29.88;;;12.02;;
8825;SDS011;4449;50.872;4.714;2022-12-10T05:59:12;24.55;;;12.07;;
8825;SDS011;4449;50.872;4.714;2022-12-10T06:01:40;30.40;;;13.18;;
8825;SDS011;4449;50.872;4.714;2022-12-10T06:04:10;31.20;;;13.27;;
8825;SDS011;4449;50.872;4.714;2022-12-10T06:06:38;28.77;;;13.07;;
8825;SDS011;4449;50.872;4.714;2022-12-10T06:09:07;32.40;;;12.00;;
8825;SDS011;4449;50.872;4.714;2022-12-10T06:11:38;34.17;;;12.95;;
8825;SDS011;4449;50.872;4.714;2022-12-10T06:14:06;30.60;;;12.25;;
8825;SDS011;4449;50.872;4.714;2022-12-10T06:16:33;28.27;;;13.23;;
8825;SDS011;4449;50.872;4.714;2022-12-10T06:19:01;33.42;;;12.85;;
8825;SDS011;4449;50.872;4.714;2022-12-10T06:21:30;35.42;;;13.60;;
8825;SDS011;4449;50.872;4.714;2022-12-10T06:23:59;29.48;;;13.23;;
8825;SDS011;4449;50.872;4.714;2022-12-10T06:26:27;27.98;;;13.48;;
8825;SDS011;4449;50.872;4.714;2022-12-10T06:28:55;31.42;;;12.88;;
8825;SDS011;4449;50.872;4.714;2022-12-10T06:31:23;30.48;;;13.35;;
8825;SDS011;4449;50.872;4.714;2022-12-10T06:33:51;30.92;;;13.00;;
8825;SDS011;4449;50.872;4.714;2022-12-10T06:36:19;24.73;;;13.07;;
8825;SDS011;4449;50.872;4.714;2022-12-10T06:38:48;34.30;;;13.32;;
8825;SDS011;4449;50.872;4.714;2022-12-10T06:41:17;43.63;;;13.73;;
8825;SDS011;4449;50.872;4.714;2022-12-10T06:43:46;33.05;;;12.68;;
8825;SDS011;4449;50.872;4.714;2022-12-10T06:46:14;35.50;;;14.70;;
8825;SDS011;4449;50.872;4.714;2022-12-10T06:48:42;37.35;;;14.05;;
8825;SDS011;4449;50.872;4.714;2022-12-10T06:51:10;34.47;;;13.05;;
8825;SDS011;4449;50.872;4.714;2022-12-10T06:53:38;30.17;;;12.15;;
8825;SDS011;4449;50.872;4.714;2022-12-10T06:56:09;38.65;;;13.45;;
8825;SDS011;4449;50.872;4.714;2022-12-10T06:58:38;32.63;;;13.18;;
8825;SDS011;4449;50.872;4.714;2022-12-10T07:01:07;41.08;;;14.98;;
8825;SDS011;4449;50.872;4.714;2022-12-10T07:03:36;47.00;;;14.43;;
8825;SDS011;4449;50.872;4.714;2022-12-10T07:06:04;34.80;;;13.60;;
8825;SDS011;4449;50.872;4.714;2022-12-10T07:08:32;40.03;;;14.32;;
8825;SDS011;4449;50.872;4.714;2022-12-10T07:11:02;35.53;;;14.93;;
8825;SDS011;4449;50.872;4.714;2022-12-10T07:13:32;32.25;;;13.63;;
8825;SDS011;4449;50.872;4.714;2022-12-10T07:15:59;40.35;;;13.38;;
8825;SDS011;4449;50.872;4.714;2022-12-10T07:18:27;45.80;;;15.52;;
8825;SDS011;4449;50.872;4.714;2022-12-10T07:20:55;32.38;;;14.43;;
8825;SDS011;4449;50.872;4.714;2022-12-10T07:23:23;60.53;;;16.80;;
8825;SDS011;4449;50.872;4.714;2022-12-10T07:25:50;39.72;;;13.45;;
8825;SDS011;4449;50.872;4.714;2022-12-10T07:28:21;37.95;;;15.00;;
8825;SDS011;4449;50.872;4.714;2022-12-10T07:30:50;38.45;;;14.70;;
8825;SDS011;4449;50.872;4.714;2022-12-10T07:33:19;41.03;;;14.38;;
8825;SDS011;4449;50.872;4.714;2022-12-10T07:35:46;40.08;;;14.48;;
8825;SDS011;4449;50.872;4.714;2022-12-10T07:38:14;42.63;;;16.13;;
8825;SDS011;4449;50.872;4.714;2022-12-10T07:40:42;38.15;;;14.90;;
8825;SDS011;4449;50.872;4.714;2022-12-10T07:43:10;39.85;;;13.57;;
8825;SDS011;4449;50.872;4.714;2022-12-10T07:45:38;41.63;;;15.93;;
8825;SDS011;4449;50.872;4.714;2022-12-10T07:48:07;38.58;;;14.05;;
8825;SDS011;4449;50.872;4.714;2022-12-10T07:50:35;38.75;;;13.65;;
8825;SDS011;4449;50.872;4.714;2022-12-10T07:53:02;36.17;;;16.08;;
8825;SDS011;4449;50.872;4.714;2022-12-10T07:55:30;36.60;;;13.95;;
8825;SDS011;4449;50.872;4.714;2022-12-10T07:57:58;43.55;;;15.50;;
8825;SDS011;4449;50.872;4.714;2022-12-10T08:00:25;37.88;;;14.23;;
8825;SDS011;4449;50.872;4.714;2022-12-10T08:02:53;37.60;;;14.07;;
8825;SDS011;4449;50.872;4.714;2022-12-10T08:05:23;39.30;;;13.85;;
8825;SDS011;4449;50.872;4.714;2022-12-10T08:07:51;42.75;;;14.15;;
8825;SDS011;4449;50.872;4.714;2022-12-10T08:10:19;39.97;;;15.35;;
8825;SDS011;4449;50.872;4.714;2022-12-10T08:12:47;42.13;;;14.63;;
8825;SDS011;4449;50.872;4.714;2022-12-10T08:15:15;34.50;;;14.57;;
8825;SDS011;4449;50.872;4.714;2022-12-10T08:17:43;48.45;;;14.90;;
8825;SDS011;4449;50.872;4.714;2022-12-10T08:20:11;37.97;;;13.35;;
8825;SDS011;4449;50.872;4.714;2022-12-10T08:22:40;29.02;;;12.00;;
8825;SDS011;4449;50.872;4.714;2022-12-10T08:25:07;37.85;;;14.40;;
8825;SDS011;4449;50.872;4.714;2022-12-10T08:27:35;36.67;;;13.13;;
8825;SDS011;4449;50.872;4.714;2022-12-10T08:30:03;35.05;;;13.30;;
8825;SDS011;4449;50.872;4.714;2022-12-10T08:32:31;27.25;;;11.23;;
8825;SDS011;4449;50.872;4.714;2022-12-10T08:34:59;32.38;;;12.55;;
8825;SDS011;4449;50.872;4.714;2022-12-10T08:37:27;26.30;;;11.00;;
8825;SDS011;4449;50.872;4.714;2022-12-10T08:39:56;33.20;;;12.93;;
8825;SDS011;4449;50.872;4.714;2022-12-10T08:42:24;37.05;;;13.48;;
8825;SDS011;4449;50.872;4.714;2022-12-10T08:44:52;32.05;;;13.35;;
8825;SDS011;4449;50.872;4.714;2022-12-10T08:47:19;26.17;;;12.10;;
8825;SDS011;4449;50.872;4.714;2022-12-10T08:49:47;28.52;;;11.20;;
8825;SDS011;4449;50.872;4.714;2022-12-10T08:52:15;27.20;;;12.15;;
8825;SDS011;4449;50.872;4.714;2022-12-10T08:54:43;28.33;;;10.18;;
8825;SDS011;4449;50.872;4.714;2022-12-10T08:57:12;30.58;;;11.95;;
8825;SDS011;4449;50.872;4.714;2022-12-10T08:59:40;32.78;;;11.73;;
8825;SDS011;4449;50.872;4.714;2022-12-10T09:02:07;30.23;;;11.48;;
8825;SDS011;4449;50.872;4.714;2022-12-10T09:04:36;28.13;;;12.45;;
8825;SDS011;4449;50.872;4.714;2022-12-10T09:07:04;25.88;;;11.63;;
8825;SDS011;4449;50.872;4.714;2022-12-10T09:09:32;30.98;;;11.02;;
8825;SDS011;4449;50.872;4.714;2022-12-10T09:12:00;37.83;;;11.75;;
8825;SDS011;4449;50.872;4.714;2022-12-10T09:14:29;32.58;;;12.93;;
8825;SDS011;4449;50.872;4.714;2022-12-10T09:16:56;26.08;;;10.65;;
8825;SDS011;4449;50.872;4.714;2022-12-10T09:19:24;29.73;;;12.10;;
8825;SDS011;4449;50.872;4.714;2022-12-10T09:21:52;31.33;;;12.18;;
8825;SDS011;4449;50.872;4.714;2022-12-10T09:24:20;25.08;;;11.52;;
8825;SDS011;4449;50.872;4.714;2022-12-10T09:26:47;28.88;;;11.48;;
8825;SDS011;4449;50.872;4.714;2022-12-10T09:29:15;33.95;;;12.13;;
8825;SDS011;4449;50.872;4.714;2022-12-10T09:31:44;31.58;;;11.38;;
8825;SDS011;4449;50.872;4.714;2022-12-10T09:34:12;33.70;;;10.35;;
8825;SDS011;4449;50.872;4.714;2022-12-10T09:36:40;22.73;;;9.70;;
8825;SDS011;4449;50.872;4.714;2022-12-10T09:39:07;28.08;;;10.85;;
8825;SDS011;4449;50.872;4.714;2022-12-10T09:41:46;31.63;;;10.02;;
8825;SDS011;4449;50.872;4.714;2022-12-10T10:41:55;30.67;;;11.07;;
8825;SDS011;4449;50.872;4.714;2022-12-10T10:44:25;37.67;;;10.82;;
8825;SDS011;4449;50.872;4.714;2022-12-10T10:46:53;30.88;;;10.77;;
8825;SDS011;4449;50.872;4.714;2022-12-10T10:49:23;28.10;;;10.32;;
8825;SDS011;4449;50.872;4.714;2022-12-10T10:51:51;32.13;;;13.10;;
8825;SDS011;4449;50.872;4.714;2022-12-10T10:54:31;25.60;;;11.02;;
8825;SDS011;4449;50.872;4.714;2022-12-10T10:57:02;29.65;;;10.85;;
8825;SDS011;4449;50.872;4.714;2022-12-10T10:59:31;25.88;;;10.63;;
8825;SDS011;4449;50.872;4.714;2022-12-10T11:02:02;27.35;;;11.77;;
8825;SDS011;4449;50.872;4.714;2022-12-10T11:04:36;31.17;;;11.55;;
8825;SDS011;4449;50.872;4.714;2022-12-10T11:07:04;19.52;;;9.10;;
8825;SDS011;4449;50.872;4.714;2022-12-10T11:09:33;19.95;;;8.35;;
8825;SDS011;4449;50.872;4.714;2022-12-10T11:12:02;30.50;;;10.70;;
8825;SDS011;4449;50.872;4.714;2022-12-10T11:14:32;30.50;;;10.85;;
8825;SDS011;4449;50.872;4.714;2022-12-10T11:17:03;23.55;;;9.63;;
8825;SDS011;4449;50.872;4.714;2022-12-10T11:19:41;29.77;;;10.35;;
8825;SDS011;4449;50.872;4.714;2022-12-10T11:22:16;23.40;;;9.35;;
8825;SDS011;4449;50.872;4.714;2022-12-10T11:24:45;26.88;;;10.38;;
8825;SDS011;4449;50.872;4.714;2022-12-10T11:27:14;29.02;;;11.95;;
8825;SDS011;4449;50.872;4.714;2022-12-10T11:29:48;26.88;;;8.63;;
8825;SDS011;4449;50.872;4.714;2022-12-10T11:32:25;30.13;;;11.88;;
8825;SDS011;4449;50.872;4.714;2022-12-10T11:35:01;29.85;;;11.38;;
8825;SDS011;4449;50.872;4.714;2022-12-10T11:37:31;26.55;;;10.02;;
8825;SDS011;4449;50.872;4.714;2022-12-10T11:40:09;29.42;;;10.98;;
8825;SDS011;4449;50.872;4.714;2022-12-10T11:42:43;20.92;;;9.50;;
8825;SDS011;4449;50.872;4.714;2022-12-10T11:45:15;25.13;;;11.38;;
8825;SDS011;4449;50.872;4.714;2022-12-10T11:47:52;27.58;;;11.48;;
8825;SDS011;4449;50.872;4.714;2022-12-10T11:50:24;30.52;;;10.13;;
8825;SDS011;4449;50.872;4.714;2022-12-10T11:52:59;28.77;;;10.77;;
8825;SDS011;4449;50.872;4.714;2022-12-10T11:55:31;31.08;;;10.75;;
8825;SDS011;4449;50.872;4.714;2022-12-10T11:58:04;31.42;;;10.52;;
8825;SDS011;4449;50.872;4.714;2022-12-10T12:00:41;22.33;;;9.77;;
8825;SDS011;4449;50.872;4.714;2022-12-10T12:03:18;29.77;;;11.00;;
8825;SDS011;4449;50.872;4.714;2022-12-10T12:05:56;31.45;;;11.52;;
8825;SDS011;4449;50.872;4.714;2022-12-10T12:08:30;22.27;;;10.43;;
8825;SDS011;4449;50.872;4.714;2022-12-10T12:11:05;25.58;;;11.00;;
8825;SDS011;4449;50.872;4.714;2022-12-10T12:13:38;31.00;;;11.35;;
8825;SDS011;4449;50.872;4.714;2022-12-10T12:16:11;26.30;;;11.88;;
8825;SDS011;4449;50.872;4.714;2022-12-10T12:18:42;33.22;;;12.13;;
8825;SDS011;4449;50.872;4.714;2022-12-10T12:21:11;30.55;;;10.95;;
8825;SDS011;4449;50.872;4.714;2022-12-10T12:23:43;25.20;;;11.73;;
8825;SDS011;4449;50.872;4.714;2022-12-10T12:26:13;30.52;;;11.75;;
8825;SDS011;4449;50.872;4.714;2022-12-10T12:28:43;25.98;;;10.48;;
8825;SDS011;4449;50.872;4.714;2022-12-10T12:31:16;27.95;;;10.55;;
8825;SDS011;4449;50.872;4.714;2022-12-10T12:33:47;34.28;;;11.30;;
8825;SDS011;4449;50.872;4.714;2022-12-10T12:36:18;33.25;;;12.30;;
8825;SDS011;4449;50.872;4.714;2022-12-10T12:38:49;30.48;;;11.55;;
8825;SDS011;4449;50.872;4.714;2022-12-10T12:41:21;24.85;;;11.10;;
8825;SDS011;4449;50.872;4.714;2022-12-10T12:43:52;29.50;;;11.93;;
8825;SDS011;4449;50.872;4.714;2022-12-10T12:46:27;22.60;;;11.10;;
8825;SDS011;4449;50.872;4.714;2022-12-10T12:48:58;27.63;;;12.05;;
8825;SDS011;4449;50.872;4.714;2022-12-10T12:51:29;33.88;;;11.15;;
8825;SDS011;4449;50.872;4.714;2022-12-10T12:54:00;33.95;;;12.68;;
8825;SDS011;4449;50.872;4.714;2022-12-10T12:56:30;33.33;;;12.50;;
8825;SDS011;4449;50.872;4.714;2022-12-10T12:59:05;23.17;;;10.23;;
8825;SDS011;4449;50.872;4.714;2022-12-10T13:01:37;18.75;;;9.38;;
8825;SDS011;4449;50.872;4.714;2022-12-10T13:04:06;28.20;;;9.30;;
8825;SDS011;4449;50.872;4.714;2022-12-10T13:06:35;29.52;;;11.60;;
8825;SDS011;4449;50.872;4.714;2022-12-10T13:09:16;26.48;;;10.23;;
8825;SDS011;4449;50.872;4.714;2022-12-10T13:11:45;27.35;;;12.05;;
8825;SDS011;4449;50.872;4.714;2022-12-10T13:14:18;32.75;;;10.55;;
8825;SDS011;4449;50.872;4.714;2022-12-10T13:17:09;25.60;;;10.45;;
8825;SDS011;4449;50.872;4.714;2022-12-10T13:19:52;23.63;;;10.07;;
8825;SDS011;4449;50.872;4.714;2022-12-10T13:25:15;18.77;;;9.75;;
8825;SDS011;4449;50.872;4.714;2022-12-10T13:27:53;22.27;;;11.15;;
8825;SDS011;4449;50.872;4.714;2022-12-10T13:30:32;25.85;;;11.07;;
8825;SDS011;4449;50.872;4.714;2022-12-10T13:33:05;24.77;;;11.02;;
8825;SDS011;4449;50.872;4.714;2022-12-10T13:35:42;33.85;;;11.93;;
8825;SDS011;4449;50.872;4.714;2022-12-10T13:38:17;26.65;;;10.57;;
8825;SDS011;4449;50.872;4.714;2022-12-10T13:40:50;25.60;;;10.45;;
8825;SDS011;4449;50.872;4.714;2022-12-10T13:43:41;27.80;;;10.63;;
8825;SDS011;4449;50.872;4.714;2022-12-10T13:46:28;20.35;;;8.23;;
8825;SDS011;4449;50.872;4.714;2022-12-10T13:49:00;31.30;;;11.43;;
8825;SDS011;4449;50.872;4.714;2022-12-10T13:51:33;30.77;;;11.57;;
8825;SDS011;4449;50.872;4.714;2022-12-10T13:54:10;32.35;;;12.90;;
8825;SDS011;4449;50.872;4.714;2022-12-10T13:56:39;32.55;;;11.07;;
8825;SDS011;4449;50.872;4.714;2022-12-10T13:59:15;24.95;;;11.23;;
8825;SDS011;4449;50.872;4.714;2022-12-10T14:01:46;25.25;;;10.50;;
8825;SDS011;4449;50.872;4.714;2022-12-10T14:07:08;24.00;;;9.88;;
8825;SDS011;4449;50.872;4.714;2022-12-10T14:09:38;25.80;;;11.25;;
8825;SDS011;4449;50.872;4.714;2022-12-10T14:12:10;26.30;;;10.27;;
8825;SDS011;4449;50.872;4.714;2022-12-10T14:14:42;29.00;;;11.13;;
8825;SDS011;4449;50.872;4.714;2022-12-10T14:17:12;24.00;;;10.07;;
8825;SDS011;4449;50.872;4.714;2022-12-10T14:19:41;28.98;;;10.85;;
8825;SDS011;4449;50.872;4.714;2022-12-10T14:22:12;23.90;;;10.27;;
8825;SDS011;4449;50.872;4.714;2022-12-10T14:24:42;22.63;;;10.45;;
8825;SDS011;4449;50.872;4.714;2022-12-10T14:27:11;25.90;;;11.40;;
8825;SDS011;4449;50.872;4.714;2022-12-10T14:29:43;27.77;;;11.20;;
8825;SDS011;4449;50.872;4.714;2022-12-10T14:32:12;28.13;;;10.60;;
8825;SDS011;4449;50.872;4.714;2022-12-10T14:34:40;35.72;;;11.52;;
8825;SDS011;4449;50.872;4.714;2022-12-10T14:37:08;28.02;;;11.82;;
8825;SDS011;4449;50.872;4.714;2022-12-10T14:39:40;26.05;;;10.82;;
8825;SDS011;4449;50.872;4.714;2022-12-10T14:42:09;25.58;;;10.95;;
8825;SDS011;4449;50.872;4.714;2022-12-10T14:44:39;27.73;;;11.48;;
8825;SDS011;4449;50.872;4.714;2022-12-10T14:47:12;40.65;;;12.65;;
8825;SDS011;4449;50.872;4.714;2022-12-10T14:49:41;27.52;;;11.38;;
8825;SDS011;4449;50.872;4.714;2022-12-10T14:52:13;32.35;;;12.27;;
8825;SDS011;4449;50.872;4.714;2022-12-10T14:54:43;29.67;;;11.57;;
8825;SDS011;4449;50.872;4.714;2022-12-10T14:57:13;28.63;;;11.00;;
8825;SDS011;4449;50.872;4.714;2022-12-10T14:59:42;24.83;;;9.85;;
8825;SDS011;4449;50.872;4.714;2022-12-10T15:02:14;26.75;;;11.57;;
8825;SDS011;4449;50.872;4.714;2022-12-10T15:04:44;26.02;;;10.30;;
8825;SDS011;4449;50.872;4.714;2022-12-10T15:07:13;24.85;;;10.70;;
8825;SDS011;4449;50.872;4.714;2022-12-10T15:09:43;23.70;;;10.98;;
8825;SDS011;4449;50.872;4.714;2022-12-10T15:12:20;27.08;;;11.23;;
8825;SDS011;4449;50.872;4.714;2022-12-10T15:14:48;23.38;;;10.93;;
8825;SDS011;4449;50.872;4.714;2022-12-10T15:17:31;35.95;;;12.77;;
8825;SDS011;4449;50.872;4.714;2022-12-10T15:19:59;34.22;;;11.13;;
8825;SDS011;4449;50.872;4.714;2022-12-10T15:22:27;29.05;;;10.68;;
8825;SDS011;4449;50.872;4.714;2022-12-10T15:24:57;22.23;;;10.23;;
8825;SDS011;4449;50.872;4.714;2022-12-10T15:27:25;26.00;;;9.73;;
8825;SDS011;4449;50.872;4.714;2022-12-10T15:29:53;29.17;;;10.98;;
8825;SDS011;4449;50.872;4.714;2022-12-10T15:32:22;22.15;;;9.70;;
8825;SDS011;4449;50.872;4.714;2022-12-10T15:34:52;27.98;;;11.73;;
8825;SDS011;4449;50.872;4.714;2022-12-10T15:37:21;30.17;;;11.50;;
8825;SDS011;4449;50.872;4.714;2022-12-10T15:39:51;29.40;;;11.20;;
8825;SDS011;4449;50.872;4.714;2022-12-10T15:42:35;26.90;;;10.45;;
8825;SDS011;4449;50.872;4.714;2022-12-10T15:45:08;37.42;;;10.73;;
8825;SDS011;4449;50.872;4.714;2022-12-10T15:47:38;27.95;;;11.02;;
8825;SDS011;4449;50.872;4.714;2022-12-10T15:50:06;25.60;;;10.07;;
8825;SDS011;4449;50.872;4.714;2022-12-10T15:52:33;28.02;;;11.43;;
8825;SDS011;4449;50.872;4.714;2022-12-10T15:55:01;29.52;;;10.68;;
8825;SDS011;4449;50.872;4.714;2022-12-10T15:57:31;21.40;;;10.23;;
8825;SDS011;4449;50.872;4.714;2022-12-10T16:00:00;30.70;;;10.95;;
8825;SDS011;4449;50.872;4.714;2022-12-10T16:02:32;25.17;;;10.77;;
8825;SDS011;4449;50.872;4.714;2022-12-10T16:05:02;30.92;;;11.85;;
8825;SDS011;4449;50.872;4.714;2022-12-10T16:07:30;27.65;;;10.52;;
8825;SDS011;4449;50.872;4.714;2022-12-10T16:09:58;27.23;;;10.80;;
8825;SDS011;4449;50.872;4.714;2022-12-10T16:12:25;28.98;;;10.43;;